sensor_id;sensor_type;location;lat;lon;timestamp;P1;durP1;ratioP1;P2;durP2;ratioP2
79566;SDS011;69030;48.126;7.816;2023-06-24T00:30:53;7.55;;;4.25;;
79566;SDS011;69030;48.126;7.816;2023-06-24T00:33:18;4.93;;;3.85;;
79566;SDS011;69030;48.126;7.816;2023-06-24T00:35:47;6.05;;;4.07;;
79566;SDS011;69030;48.126;7.816;2023-06-24T00:38:12;6.20;;;3.83;;
79566;SDS011;69030;48.126;7.816;2023-06-24T00:40:38;5.97;;;3.83;;
79566;SDS011;69030;48.126;7.816;2023-06-24T00:43:04;5.70;;;4.13;;
79566;SDS011;69030;48.126;7.816;2023-06-24T00:45:30;9.05;;;4.22;;
79566;SDS011;69030;48.126;7.816;2023-06-24T00:47:55;6.47;;;4.03;;
79566;SDS011;69030;48.126;7.816;2023-06-24T00:50:23;7.78;;;5.18;;
79566;SDS011;69030;48.126;7.816;2023-06-24T00:52:48;6.35;;;3.70;;
79566;SDS011;69030;48.126;7.816;2023-06-24T00:55:15;6.65;;;3.63;;
79566;SDS011;69030;48.126;7.816;2023-06-24T00:57:42;5.03;;;3.17;;
79566;SDS011;69030;48.126;7.816;2023-06-24T01:00:08;5.57;;;3.65;;
79566;SDS011;69030;48.126;7.816;2023-06-24T01:02:38;7.03;;;3.75;;
79566;SDS011;69030;48.126;7.816;2023-06-24T01:05:04;8.38;;;3.90;;
79566;SDS011;69030;48.126;7.816;2023-06-24T01:07:31;6.47;;;3.65;;
79566;SDS011;69030;48.126;7.816;2023-06-24T01:09:57;9.18;;;4.15;;
79566;SDS011;69030;48.126;7.816;2023-06-24T01:12:22;9.27;;;5.05;;
79566;SDS011;69030;48.126;7.816;2023-06-24T01:14:48;5.53;;;3.80;;
79566;SDS011;69030;48.126;7.816;2023-06-24T01:17:19;10.48;;;4.25;;
79566;SDS011;69030;48.126;7.816;2023-06-24T01:22:18;7.53;;;4.50;;
79566;SDS011;69030;48.126;7.816;2023-06-24T01:25:00;8.85;;;4.60;;
79566;SDS011;69030;48.126;7.816;2023-06-24T01:33:07;7.20;;;4.60;;
79566;SDS011;69030;48.126;7.816;2023-06-24T01:35:34;8.30;;;4.38;;
79566;SDS011;69030;48.126;7.816;2023-06-24T01:38:07;5.72;;;4.32;;
79566;SDS011;69030;48.126;7.816;2023-06-24T01:40:43;6.15;;;4.15;;
79566;SDS011;69030;48.126;7.816;2023-06-24T01:43:09;6.45;;;4.10;;
79566;SDS011;69030;48.126;7.816;2023-06-24T01:45:53;6.15;;;3.65;;
79566;SDS011;69030;48.126;7.816;2023-06-24T01:48:24;6.78;;;4.53;;
79566;SDS011;69030;48.126;7.816;2023-06-24T01:53:52;6.65;;;3.63;;
79566;SDS011;69030;48.126;7.816;2023-06-24T01:56:20;6.47;;;4.72;;
79566;SDS011;69030;48.126;7.816;2023-06-24T01:58:47;6.30;;;4.00;;
79566;SDS011;69030;48.126;7.816;2023-06-24T02:01:13;6.03;;;3.63;;
79566;SDS011;69030;48.126;7.816;2023-06-24T02:03:39;6.53;;;3.92;;
79566;SDS011;69030;48.126;7.816;2023-06-24T02:06:06;7.47;;;4.45;;
79566;SDS011;69030;48.126;7.816;2023-06-24T02:08:34;6.60;;;4.57;;
79566;SDS011;69030;48.126;7.816;2023-06-24T02:11:01;6.07;;;3.92;;
79566;SDS011;69030;48.126;7.816;2023-06-24T02:13:27;7.32;;;4.68;;
79566;SDS011;69030;48.126;7.816;2023-06-24T02:15:56;6.75;;;4.90;;
79566;SDS011;69030;48.126;7.816;2023-06-24T02:18:22;7.78;;;4.43;;
79566;SDS011;69030;48.126;7.816;2023-06-24T02:20:48;6.45;;;4.88;;
79566;SDS011;69030;48.126;7.816;2023-06-24T02:23:14;7.75;;;3.83;;
79566;SDS011;69030;48.126;7.816;2023-06-24T02:25:40;6.13;;;3.55;;
79566;SDS011;69030;48.126;7.816;2023-06-24T02:28:05;5.53;;;3.92;;
79566;SDS011;69030;48.126;7.816;2023-06-24T02:30:32;8.93;;;4.53;;
79566;SDS011;69030;48.126;7.816;2023-06-24T02:32:59;7.13;;;4.30;;
79566;SDS011;69030;48.126;7.816;2023-06-24T02:35:24;5.60;;;4.20;;
79566;SDS011;69030;48.126;7.816;2023-06-24T02:37:50;7.45;;;4.38;;
79566;SDS011;69030;48.126;7.816;2023-06-24T02:40:15;7.97;;;4.18;;
79566;SDS011;69030;48.126;7.816;2023-06-24T02:42:41;7.97;;;5.03;;
79566;SDS011;69030;48.126;7.816;2023-06-24T02:45:06;6.03;;;4.53;;
79566;SDS011;69030;48.126;7.816;2023-06-24T02:47:32;6.88;;;4.25;;
79566;SDS011;69030;48.126;7.816;2023-06-24T02:49:58;5.35;;;3.60;;
79566;SDS011;69030;48.126;7.816;2023-06-24T02:52:24;6.80;;;3.60;;
79566;SDS011;69030;48.126;7.816;2023-06-24T02:54:53;7.93;;;4.63;;
79566;SDS011;69030;48.126;7.816;2023-06-24T02:57:19;6.95;;;4.38;;
79566;SDS011;69030;48.126;7.816;2023-06-24T02:59:45;7.07;;;4.32;;
79566;SDS011;69030;48.126;7.816;2023-06-24T03:02:10;6.22;;;3.90;;
79566;SDS011;69030;48.126;7.816;2023-06-24T03:04:36;6.95;;;4.25;;
79566;SDS011;69030;48.126;7.816;2023-06-24T03:07:03;6.90;;;4.57;;
79566;SDS011;69030;48.126;7.816;2023-06-24T03:09:31;6.78;;;4.50;;
79566;SDS011;69030;48.126;7.816;2023-06-24T03:11:58;5.82;;;4.22;;
79566;SDS011;69030;48.126;7.816;2023-06-24T03:14:24;6.95;;;4.20;;
79566;SDS011;69030;48.126;7.816;2023-06-24T03:16:49;7.35;;;4.43;;
79566;SDS011;69030;48.126;7.816;2023-06-24T03:19:14;7.38;;;4.07;;
79566;SDS011;69030;48.126;7.816;2023-06-24T03:21:40;8.15;;;4.95;;
79566;SDS011;69030;48.126;7.816;2023-06-24T03:24:05;8.05;;;4.22;;
79566;SDS011;69030;48.126;7.816;2023-06-24T03:26:40;5.57;;;4.32;;
79566;SDS011;69030;48.126;7.816;2023-06-24T03:29:05;8.88;;;4.78;;
79566;SDS011;69030;48.126;7.816;2023-06-24T03:31:32;6.43;;;4.80;;
79566;SDS011;69030;48.126;7.816;2023-06-24T03:33:57;10.20;;;4.53;;
79566;SDS011;69030;48.126;7.816;2023-06-24T03:36:22;9.00;;;4.72;;
79566;SDS011;69030;48.126;7.816;2023-06-24T03:38:49;8.00;;;4.10;;
79566;SDS011;69030;48.126;7.816;2023-06-24T03:41:14;5.78;;;4.13;;
79566;SDS011;69030;48.126;7.816;2023-06-24T03:43:39;6.45;;;4.32;;
79566;SDS011;69030;48.126;7.816;2023-06-24T03:46:06;5.65;;;3.92;;
79566;SDS011;69030;48.126;7.816;2023-06-24T03:48:32;6.05;;;3.25;;
79566;SDS011;69030;48.126;7.816;2023-06-24T03:50:57;7.07;;;4.40;;
79566;SDS011;69030;48.126;7.816;2023-06-24T03:53:23;9.25;;;5.25;;
79566;SDS011;69030;48.126;7.816;2023-06-24T03:55:48;7.50;;;4.80;;
79566;SDS011;69030;48.126;7.816;2023-06-24T03:58:13;8.57;;;4.93;;
79566;SDS011;69030;48.126;7.816;2023-06-24T04:03:08;7.85;;;5.30;;
79566;SDS011;69030;48.126;7.816;2023-06-24T04:05:34;8.40;;;4.32;;
79566;SDS011;69030;48.126;7.816;2023-06-24T04:07:59;7.22;;;4.43;;
79566;SDS011;69030;48.126;7.816;2023-06-24T04:10:25;9.55;;;5.78;;
79566;SDS011;69030;48.126;7.816;2023-06-24T04:12:50;6.28;;;4.95;;
79566;SDS011;69030;48.126;7.816;2023-06-24T04:15:15;6.38;;;4.07;;
79566;SDS011;69030;48.126;7.816;2023-06-24T04:17:41;7.00;;;4.00;;
79566;SDS011;69030;48.126;7.816;2023-06-24T04:20:06;9.27;;;4.60;;
79566;SDS011;69030;48.126;7.816;2023-06-24T04:22:40;7.03;;;4.40;;
79566;SDS011;69030;48.126;7.816;2023-06-24T04:25:06;7.07;;;4.32;;
79566;SDS011;69030;48.126;7.816;2023-06-24T04:27:32;5.53;;;3.85;;
79566;SDS011;69030;48.126;7.816;2023-06-24T04:29:58;6.32;;;4.53;;
79566;SDS011;69030;48.126;7.816;2023-06-24T04:32:24;5.88;;;3.88;;
79566;SDS011;69030;48.126;7.816;2023-06-24T04:34:49;11.05;;;4.65;;
79566;SDS011;69030;48.126;7.816;2023-06-24T04:37:15;10.05;;;4.60;;
79566;SDS011;69030;48.126;7.816;2023-06-24T04:39:40;6.68;;;4.90;;
79566;SDS011;69030;48.126;7.816;2023-06-24T04:42:06;8.27;;;4.40;;
79566;SDS011;69030;48.126;7.816;2023-06-24T04:44:31;7.90;;;4.03;;
79566;SDS011;69030;48.126;7.816;2023-06-24T04:46:56;6.47;;;4.30;;
79566;SDS011;69030;48.126;7.816;2023-06-24T04:49:22;6.57;;;4.80;;
79566;SDS011;69030;48.126;7.816;2023-06-24T04:51:47;6.78;;;4.85;;
79566;SDS011;69030;48.126;7.816;2023-06-24T04:54:12;7.68;;;4.53;;
79566;SDS011;69030;48.126;7.816;2023-06-24T04:56:39;6.90;;;5.55;;
79566;SDS011;69030;48.126;7.816;2023-06-24T04:59:04;8.18;;;4.18;;
79566;SDS011;69030;48.126;7.816;2023-06-24T05:01:30;5.30;;;3.58;;
79566;SDS011;69030;48.126;7.816;2023-06-24T05:03:55;5.43;;;4.10;;
79566;SDS011;69030;48.126;7.816;2023-06-24T05:06:20;6.80;;;4.55;;
79566;SDS011;69030;48.126;7.816;2023-06-24T05:08:45;7.82;;;3.63;;
79566;SDS011;69030;48.126;7.816;2023-06-24T05:11:11;7.07;;;3.90;;
79566;SDS011;69030;48.126;7.816;2023-06-24T05:13:37;8.68;;;3.45;;
79566;SDS011;69030;48.126;7.816;2023-06-24T05:16:02;8.20;;;5.20;;
79566;SDS011;69030;48.126;7.816;2023-06-24T05:18:28;14.05;;;4.47;;
79566;SDS011;69030;48.126;7.816;2023-06-24T05:20:53;5.38;;;4.10;;
79566;SDS011;69030;48.126;7.816;2023-06-24T05:23:18;6.60;;;4.15;;
79566;SDS011;69030;48.126;7.816;2023-06-24T05:25:44;5.72;;;4.30;;
79566;SDS011;69030;48.126;7.816;2023-06-24T05:28:09;6.93;;;4.00;;
79566;SDS011;69030;48.126;7.816;2023-06-24T05:30:35;7.88;;;4.35;;
79566;SDS011;69030;48.126;7.816;2023-06-24T05:33:00;7.13;;;4.35;;
79566;SDS011;69030;48.126;7.816;2023-06-24T05:35:25;8.23;;;5.40;;
79566;SDS011;69030;48.126;7.816;2023-06-24T05:37:51;6.53;;;4.57;;
79566;SDS011;69030;48.126;7.816;2023-06-24T05:40:16;5.53;;;4.28;;
79566;SDS011;69030;48.126;7.816;2023-06-24T05:42:41;6.05;;;4.13;;
79566;SDS011;69030;48.126;7.816;2023-06-24T05:45:07;9.27;;;4.55;;
79566;SDS011;69030;48.126;7.816;2023-06-24T05:47:33;9.35;;;4.13;;
79566;SDS011;69030;48.126;7.816;2023-06-24T05:49:58;6.55;;;4.35;;
79566;SDS011;69030;48.126;7.816;2023-06-24T05:52:23;8.73;;;4.82;;
79566;SDS011;69030;48.126;7.816;2023-06-24T05:54:49;6.00;;;4.78;;
79566;SDS011;69030;48.126;7.816;2023-06-24T05:57:15;4.97;;;3.47;;
79566;SDS011;69030;48.126;7.816;2023-06-24T05:59:40;8.02;;;5.05;;
79566;SDS011;69030;48.126;7.816;2023-06-24T06:02:06;8.02;;;4.85;;
79566;SDS011;69030;48.126;7.816;2023-06-24T06:04:31;6.47;;;5.00;;
79566;SDS011;69030;48.126;7.816;2023-06-24T06:06:56;6.82;;;5.38;;
79566;SDS011;69030;48.126;7.816;2023-06-24T06:09:22;8.07;;;5.35;;
79566;SDS011;69030;48.126;7.816;2023-06-24T06:11:47;7.85;;;5.75;;
79566;SDS011;69030;48.126;7.816;2023-06-24T06:14:13;7.40;;;4.78;;
79566;SDS011;69030;48.126;7.816;2023-06-24T06:16:38;7.63;;;4.93;;
79566;SDS011;69030;48.126;7.816;2023-06-24T06:19:04;8.30;;;4.40;;
79566;SDS011;69030;48.126;7.816;2023-06-24T06:21:29;6.95;;;4.70;;
79566;SDS011;69030;48.126;7.816;2023-06-24T06:23:55;6.95;;;4.47;;
79566;SDS011;69030;48.126;7.816;2023-06-24T06:26:20;8.25;;;5.05;;
79566;SDS011;69030;48.126;7.816;2023-06-24T06:28:46;7.22;;;5.32;;
79566;SDS011;69030;48.126;7.816;2023-06-24T06:31:13;6.80;;;4.15;;
79566;SDS011;69030;48.126;7.816;2023-06-24T06:33:38;5.78;;;4.32;;
79566;SDS011;69030;48.126;7.816;2023-06-24T06:36:04;8.75;;;4.50;;
79566;SDS011;69030;48.126;7.816;2023-06-24T06:38:29;5.97;;;3.38;;
79566;SDS011;69030;48.126;7.816;2023-06-24T06:40:55;7.05;;;4.20;;
79566;SDS011;69030;48.126;7.816;2023-06-24T06:43:21;5.40;;;3.70;;
79566;SDS011;69030;48.126;7.816;2023-06-24T06:45:46;6.18;;;4.05;;
79566;SDS011;69030;48.126;7.816;2023-06-24T06:48:12;4.85;;;3.70;;
79566;SDS011;69030;48.126;7.816;2023-06-24T06:50:37;5.88;;;4.43;;
79566;SDS011;69030;48.126;7.816;2023-06-24T06:53:02;5.28;;;3.42;;
79566;SDS011;69030;48.126;7.816;2023-06-24T06:55:28;5.55;;;3.88;;
79566;SDS011;69030;48.126;7.816;2023-06-24T06:57:53;6.22;;;4.53;;
79566;SDS011;69030;48.126;7.816;2023-06-24T07:00:20;5.85;;;4.45;;
79566;SDS011;69030;48.126;7.816;2023-06-24T07:02:45;6.47;;;3.88;;
79566;SDS011;69030;48.126;7.816;2023-06-24T07:05:11;14.93;;;4.55;;
79566;SDS011;69030;48.126;7.816;2023-06-24T07:07:39;7.38;;;5.78;;
79566;SDS011;69030;48.126;7.816;2023-06-24T07:10:05;7.13;;;3.80;;
79566;SDS011;69030;48.126;7.816;2023-06-24T07:12:31;6.07;;;3.67;;
79566;SDS011;69030;48.126;7.816;2023-06-24T07:14:56;4.60;;;3.72;;
79566;SDS011;69030;48.126;7.816;2023-06-24T07:17:22;5.45;;;3.92;;
79566;SDS011;69030;48.126;7.816;2023-06-24T07:19:47;7.18;;;4.05;;
79566;SDS011;69030;48.126;7.816;2023-06-24T07:22:13;5.25;;;3.38;;
79566;SDS011;69030;48.126;7.816;2023-06-24T07:24:39;4.00;;;3.00;;
79566;SDS011;69030;48.126;7.816;2023-06-24T07:27:04;4.15;;;3.30;;
79566;SDS011;69030;48.126;7.816;2023-06-24T07:29:30;4.15;;;2.47;;
79566;SDS011;69030;48.126;7.816;2023-06-24T07:31:55;5.38;;;3.10;;
79566;SDS011;69030;48.126;7.816;2023-06-24T07:34:21;4.97;;;2.88;;
79566;SDS011;69030;48.126;7.816;2023-06-24T07:36:46;4.25;;;3.00;;
79566;SDS011;69030;48.126;7.816;2023-06-24T07:39:11;4.10;;;3.03;;
79566;SDS011;69030;48.126;7.816;2023-06-24T07:41:37;3.33;;;2.83;;
79566;SDS011;69030;48.126;7.816;2023-06-24T07:44:02;3.92;;;2.95;;
79566;SDS011;69030;48.126;7.816;2023-06-24T07:46:28;4.47;;;2.72;;
79566;SDS011;69030;48.126;7.816;2023-06-24T07:48:53;7.22;;;2.78;;
79566;SDS011;69030;48.126;7.816;2023-06-24T07:51:19;8.43;;;3.47;;
79566;SDS011;69030;48.126;7.816;2023-06-24T07:53:44;4.38;;;2.85;;
79566;SDS011;69030;48.126;7.816;2023-06-24T07:56:09;3.83;;;2.45;;
79566;SDS011;69030;48.126;7.816;2023-06-24T07:58:35;4.97;;;3.33;;
79566;SDS011;69030;48.126;7.816;2023-06-24T08:01:01;5.45;;;3.20;;
79566;SDS011;69030;48.126;7.816;2023-06-24T08:03:27;5.13;;;3.42;;
79566;SDS011;69030;48.126;7.816;2023-06-24T08:05:53;5.15;;;3.40;;
79566;SDS011;69030;48.126;7.816;2023-06-24T08:08:18;4.47;;;2.97;;
79566;SDS011;69030;48.126;7.816;2023-06-24T08:10:45;3.63;;;2.60;;
79566;SDS011;69030;48.126;7.816;2023-06-24T08:13:11;3.88;;;3.05;;
79566;SDS011;69030;48.126;7.816;2023-06-24T08:15:36;4.60;;;2.85;;
79566;SDS011;69030;48.126;7.816;2023-06-24T08:18:01;4.78;;;2.78;;
79566;SDS011;69030;48.126;7.816;2023-06-24T08:20:27;4.63;;;2.92;;
79566;SDS011;69030;48.126;7.816;2023-06-24T08:22:52;4.85;;;3.22;;
79566;SDS011;69030;48.126;7.816;2023-06-24T08:25:18;9.00;;;3.28;;
79566;SDS011;69030;48.126;7.816;2023-06-24T08:27:43;4.45;;;2.70;;
79566;SDS011;69030;48.126;7.816;2023-06-24T08:30:12;4.15;;;2.63;;
79566;SDS011;69030;48.126;7.816;2023-06-24T08:32:38;5.82;;;3.53;;
79566;SDS011;69030;48.126;7.816;2023-06-24T08:35:05;3.97;;;2.63;;
79566;SDS011;69030;48.126;7.816;2023-06-24T08:37:31;4.18;;;2.72;;
79566;SDS011;69030;48.126;7.816;2023-06-24T08:39:56;3.85;;;2.55;;
79566;SDS011;69030;48.126;7.816;2023-06-24T08:42:22;7.25;;;5.68;;
79566;SDS011;69030;48.126;7.816;2023-06-24T08:44:47;6.32;;;3.05;;
79566;SDS011;69030;48.126;7.816;2023-06-24T08:47:13;5.85;;;2.90;;
79566;SDS011;69030;48.126;7.816;2023-06-24T08:49:43;6.55;;;3.35;;
79566;SDS011;69030;48.126;7.816;2023-06-24T08:52:12;4.38;;;2.83;;
79566;SDS011;69030;48.126;7.816;2023-06-24T08:54:40;8.68;;;3.10;;
79566;SDS011;69030;48.126;7.816;2023-06-24T08:57:06;5.57;;;3.13;;
79566;SDS011;69030;48.126;7.816;2023-06-24T08:59:36;5.30;;;3.22;;
79566;SDS011;69030;48.126;7.816;2023-06-24T09:02:02;6.32;;;3.08;;
79566;SDS011;69030;48.126;7.816;2023-06-24T09:04:27;4.82;;;3.35;;
79566;SDS011;69030;48.126;7.816;2023-06-24T09:06:52;5.30;;;3.53;;
79566;SDS011;69030;48.126;7.816;2023-06-24T09:09:18;5.15;;;2.63;;
79566;SDS011;69030;48.126;7.816;2023-06-24T09:11:51;4.30;;;3.50;;
79566;SDS011;69030;48.126;7.816;2023-06-24T09:14:21;5.78;;;2.50;;
79566;SDS011;69030;48.126;7.816;2023-06-24T09:16:59;4.38;;;3.17;;
79566;SDS011;69030;48.126;7.816;2023-06-24T09:19:31;4.72;;;2.95;;
79566;SDS011;69030;48.126;7.816;2023-06-24T09:22:04;7.32;;;3.17;;
79566;SDS011;69030;48.126;7.816;2023-06-24T09:24:31;7.05;;;3.08;;
79566;SDS011;69030;48.126;7.816;2023-06-24T09:26:57;7.60;;;3.78;;
79566;SDS011;69030;48.126;7.816;2023-06-24T09:29:25;5.20;;;2.95;;
79566;SDS011;69030;48.126;7.816;2023-06-24T09:31:54;4.93;;;3.15;;
79566;SDS011;69030;48.126;7.816;2023-06-24T09:34:24;4.40;;;3.35;;
79566;SDS011;69030;48.126;7.816;2023-06-24T09:36:51;5.47;;;3.30;;
79566;SDS011;69030;48.126;7.816;2023-06-24T09:39:18;5.82;;;3.63;;
79566;SDS011;69030;48.126;7.816;2023-06-24T09:41:45;4.00;;;3.22;;
79566;SDS011;69030;48.126;7.816;2023-06-24T09:44:15;6.93;;;3.75;;
79566;SDS011;69030;48.126;7.816;2023-06-24T09:46:41;6.32;;;3.08;;
79566;SDS011;69030;48.126;7.816;2023-06-24T09:49:07;4.93;;;2.92;;
79566;SDS011;69030;48.126;7.816;2023-06-24T09:51:35;6.10;;;3.38;;
79566;SDS011;69030;48.126;7.816;2023-06-24T09:54:03;4.10;;;3.03;;
79566;SDS011;69030;48.126;7.816;2023-06-24T09:56:39;5.32;;;2.83;;
79566;SDS011;69030;48.126;7.816;2023-06-24T09:59:05;4.60;;;3.25;;
79566;SDS011;69030;48.126;7.816;2023-06-24T10:01:37;5.95;;;2.97;;
79566;SDS011;69030;48.126;7.816;2023-06-24T10:04:04;6.10;;;3.35;;
79566;SDS011;69030;48.126;7.816;2023-06-24T10:06:30;5.53;;;2.92;;
79566;SDS011;69030;48.126;7.816;2023-06-24T10:08:57;3.85;;;2.60;;
79566;SDS011;69030;48.126;7.816;2023-06-24T10:11:23;3.70;;;2.20;;
79566;SDS011;69030;48.126;7.816;2023-06-24T10:13:48;3.92;;;2.40;;
79566;SDS011;69030;48.126;7.816;2023-06-24T10:16:14;5.00;;;2.67;;
79566;SDS011;69030;48.126;7.816;2023-06-24T10:18:40;4.20;;;1.90;;
79566;SDS011;69030;48.126;7.816;2023-06-24T10:21:07;7.15;;;2.53;;
79566;SDS011;69030;48.126;7.816;2023-06-24T10:23:33;3.75;;;1.83;;
79566;SDS011;69030;48.126;7.816;2023-06-24T10:26:07;2.97;;;1.90;;
79566;SDS011;69030;48.126;7.816;2023-06-24T10:40:01;4.22;;;2.22;;
79566;SDS011;69030;48.126;7.816;2023-06-24T10:45:00;6.35;;;2.08;;
79566;SDS011;69030;48.126;7.816;2023-06-24T10:47:35;3.80;;;2.17;;
79566;SDS011;69030;48.126;7.816;2023-06-24T10:50:11;2.78;;;1.35;;
79566;SDS011;69030;48.126;7.816;2023-06-24T10:52:40;3.05;;;1.70;;
79566;SDS011;69030;48.126;7.816;2023-06-24T10:55:07;3.20;;;1.63;;
79566;SDS011;69030;48.126;7.816;2023-06-24T10:57:32;2.33;;;1.23;;
79566;SDS011;69030;48.126;7.816;2023-06-24T10:59:58;2.35;;;1.23;;
79566;SDS011;69030;48.126;7.816;2023-06-24T11:02:24;2.70;;;1.50;;
79566;SDS011;69030;48.126;7.816;2023-06-24T11:04:52;3.20;;;2.08;;
79566;SDS011;69030;48.126;7.816;2023-06-24T11:09:48;3.17;;;1.75;;
79566;SDS011;69030;48.126;7.816;2023-06-24T11:12:14;2.88;;;1.98;;
79566;SDS011;69030;48.126;7.816;2023-06-24T11:14:40;3.00;;;1.95;;
79566;SDS011;69030;48.126;7.816;2023-06-24T11:17:05;2.65;;;1.42;;
79566;SDS011;69030;48.126;7.816;2023-06-24T11:19:31;5.45;;;2.15;;
79566;SDS011;69030;48.126;7.816;2023-06-24T11:22:02;5.20;;;1.88;;
79566;SDS011;69030;48.126;7.816;2023-06-24T11:24:28;3.08;;;1.98;;
79566;SDS011;69030;48.126;7.816;2023-06-24T11:26:53;4.22;;;2.33;;
79566;SDS011;69030;48.126;7.816;2023-06-24T11:29:19;2.85;;;1.70;;
79566;SDS011;69030;48.126;7.816;2023-06-24T11:31:44;2.40;;;1.75;;
79566;SDS011;69030;48.126;7.816;2023-06-24T11:34:10;3.50;;;2.00;;
79566;SDS011;69030;48.126;7.816;2023-06-24T11:36:36;3.35;;;1.88;;
79566;SDS011;69030;48.126;7.816;2023-06-24T11:39:01;2.40;;;1.58;;
79566;SDS011;69030;48.126;7.816;2023-06-24T11:41:27;2.70;;;1.48;;
79566;SDS011;69030;48.126;7.816;2023-06-24T11:43:53;3.35;;;1.75;;
79566;SDS011;69030;48.126;7.816;2023-06-24T11:46:21;3.78;;;1.70;;
79566;SDS011;69030;48.126;7.816;2023-06-24T11:48:49;3.13;;;1.48;;
79566;SDS011;69030;48.126;7.816;2023-06-24T11:51:14;3.92;;;1.67;;
79566;SDS011;69030;48.126;7.816;2023-06-24T11:53:43;3.15;;;1.63;;
79566;SDS011;69030;48.126;7.816;2023-06-24T11:56:09;3.00;;;1.73;;
79566;SDS011;69030;48.126;7.816;2023-06-24T11:58:35;4.43;;;1.83;;
79566;SDS011;69030;48.126;7.816;2023-06-24T12:01:01;3.25;;;2.03;;
79566;SDS011;69030;48.126;7.816;2023-06-24T12:03:27;3.15;;;1.77;;
79566;SDS011;69030;48.126;7.816;2023-06-24T12:05:54;4.90;;;1.95;;
79566;SDS011;69030;48.126;7.816;2023-06-24T12:08:19;2.67;;;1.55;;
79566;SDS011;69030;48.126;7.816;2023-06-24T12:10:45;3.03;;;1.10;;
79566;SDS011;69030;48.126;7.816;2023-06-24T12:13:11;3.20;;;1.48;;
79566;SDS011;69030;48.126;7.816;2023-06-24T12:15:36;2.65;;;1.60;;
79566;SDS011;69030;48.126;7.816;2023-06-24T12:18:02;3.00;;;1.63;;
79566;SDS011;69030;48.126;7.816;2023-06-24T12:20:28;2.42;;;1.48;;
79566;SDS011;69030;48.126;7.816;2023-06-24T12:22:54;3.63;;;1.33;;
79566;SDS011;69030;48.126;7.816;2023-06-24T12:25:20;3.22;;;2.35;;
79566;SDS011;69030;48.126;7.816;2023-06-24T12:27:46;2.30;;;1.05;;
79566;SDS011;69030;48.126;7.816;2023-06-24T12:30:12;2.83;;;1.80;;
79566;SDS011;69030;48.126;7.816;2023-06-24T12:32:37;2.53;;;0.95;;
79566;SDS011;69030;48.126;7.816;2023-06-24T12:35:03;4.07;;;2.22;;
79566;SDS011;69030;48.126;7.816;2023-06-24T12:37:32;3.75;;;1.48;;
79566;SDS011;69030;48.126;7.816;2023-06-24T12:39:58;2.47;;;1.73;;
79566;SDS011;69030;48.126;7.816;2023-06-24T12:42:24;3.55;;;1.77;;
79566;SDS011;69030;48.126;7.816;2023-06-24T12:44:50;2.92;;;1.40;;
79566;SDS011;69030;48.126;7.816;2023-06-24T12:47:15;3.35;;;2.05;;
79566;SDS011;69030;48.126;7.816;2023-06-24T12:49:41;3.08;;;1.58;;
79566;SDS011;69030;48.126;7.816;2023-06-24T12:52:06;3.00;;;1.50;;
79566;SDS011;69030;48.126;7.816;2023-06-24T12:54:32;3.05;;;1.55;;
79566;SDS011;69030;48.126;7.816;2023-06-24T12:56:57;4.55;;;1.65;;
79566;SDS011;69030;48.126;7.816;2023-06-24T12:59:23;3.40;;;1.45;;
79566;SDS011;69030;48.126;7.816;2023-06-24T13:01:48;2.25;;;1.65;;
79566;SDS011;69030;48.126;7.816;2023-06-24T13:04:13;2.72;;;1.55;;
79566;SDS011;69030;48.126;7.816;2023-06-24T13:06:39;3.40;;;1.80;;
79566;SDS011;69030;48.126;7.816;2023-06-24T13:09:05;4.03;;;1.80;;
79566;SDS011;69030;48.126;7.816;2023-06-24T13:11:30;3.70;;;1.77;;
79566;SDS011;69030;48.126;7.816;2023-06-24T13:13:56;2.25;;;1.38;;
79566;SDS011;69030;48.126;7.816;2023-06-24T13:16:21;2.28;;;1.27;;
79566;SDS011;69030;48.126;7.816;2023-06-24T13:18:46;2.72;;;1.58;;
79566;SDS011;69030;48.126;7.816;2023-06-24T13:21:12;2.17;;;1.33;;
79566;SDS011;69030;48.126;7.816;2023-06-24T13:23:38;2.45;;;1.27;;
79566;SDS011;69030;48.126;7.816;2023-06-24T13:26:05;3.30;;;1.25;;
79566;SDS011;69030;48.126;7.816;2023-06-24T13:28:31;3.30;;;1.23;;
79566;SDS011;69030;48.126;7.816;2023-06-24T13:30:57;2.55;;;1.48;;
79566;SDS011;69030;48.126;7.816;2023-06-24T13:33:22;2.90;;;2.55;;
79566;SDS011;69030;48.126;7.816;2023-06-24T13:35:48;2.88;;;1.58;;
79566;SDS011;69030;48.126;7.816;2023-06-24T13:38:14;3.13;;;1.65;;
79566;SDS011;69030;48.126;7.816;2023-06-24T13:40:40;3.45;;;1.75;;
79566;SDS011;69030;48.126;7.816;2023-06-24T13:43:05;2.67;;;1.58;;
79566;SDS011;69030;48.126;7.816;2023-06-24T13:45:31;2.67;;;1.63;;
79566;SDS011;69030;48.126;7.816;2023-06-24T13:47:56;2.50;;;1.35;;
79566;SDS011;69030;48.126;7.816;2023-06-24T13:50:22;2.15;;;1.27;;
79566;SDS011;69030;48.126;7.816;2023-06-24T13:52:48;4.70;;;1.70;;
79566;SDS011;69030;48.126;7.816;2023-06-24T13:55:13;2.67;;;1.83;;
79566;SDS011;69030;48.126;7.816;2023-06-24T13:57:38;1.75;;;1.17;;
79566;SDS011;69030;48.126;7.816;2023-06-24T14:00:04;4.35;;;1.67;;
79566;SDS011;69030;48.126;7.816;2023-06-24T14:02:32;5.80;;;1.73;;
79566;SDS011;69030;48.126;7.816;2023-06-24T14:04:58;2.15;;;1.55;;
79566;SDS011;69030;48.126;7.816;2023-06-24T14:07:24;4.25;;;3.03;;
79566;SDS011;69030;48.126;7.816;2023-06-24T14:09:50;3.17;;;1.83;;
79566;SDS011;69030;48.126;7.816;2023-06-24T14:12:15;5.07;;;1.77;;
79566;SDS011;69030;48.126;7.816;2023-06-24T14:14:40;4.50;;;1.95;;
79566;SDS011;69030;48.126;7.816;2023-06-24T14:17:06;3.38;;;1.67;;
79566;SDS011;69030;48.126;7.816;2023-06-24T14:19:36;3.72;;;2.08;;
79566;SDS011;69030;48.126;7.816;2023-06-24T14:22:02;3.05;;;1.65;;
79566;SDS011;69030;48.126;7.816;2023-06-24T14:24:28;2.65;;;1.58;;
79566;SDS011;69030;48.126;7.816;2023-06-24T14:26:53;17.58;;;2.03;;
79566;SDS011;69030;48.126;7.816;2023-06-24T14:29:18;3.15;;;1.70;;
79566;SDS011;69030;48.126;7.816;2023-06-24T14:31:44;2.17;;;1.58;;
79566;SDS011;69030;48.126;7.816;2023-06-24T14:34:09;2.40;;;1.05;;
79566;SDS011;69030;48.126;7.816;2023-06-24T14:36:35;3.75;;;1.60;;
79566;SDS011;69030;48.126;7.816;2023-06-24T14:39:00;3.40;;;1.42;;
79566;SDS011;69030;48.126;7.816;2023-06-24T14:41:25;2.72;;;1.88;;
79566;SDS011;69030;48.126;7.816;2023-06-24T14:43:51;2.03;;;1.60;;
79566;SDS011;69030;48.126;7.816;2023-06-24T14:46:16;2.80;;;1.77;;
79566;SDS011;69030;48.126;7.816;2023-06-24T14:48:42;1.95;;;0.90;;
79566;SDS011;69030;48.126;7.816;2023-06-24T14:51:07;4.13;;;1.25;;
79566;SDS011;69030;48.126;7.816;2023-06-24T14:53:32;2.38;;;1.17;;
79566;SDS011;69030;48.126;7.816;2023-06-24T14:55:58;2.97;;;1.45;;
79566;SDS011;69030;48.126;7.816;2023-06-24T14:58:23;2.90;;;1.95;;
79566;SDS011;69030;48.126;7.816;2023-06-24T15:00:48;3.80;;;2.65;;
79566;SDS011;69030;48.126;7.816;2023-06-24T15:03:14;4.03;;;2.80;;
79566;SDS011;69030;48.126;7.816;2023-06-24T15:05:39;3.47;;;1.48;;
79566;SDS011;69030;48.126;7.816;2023-06-24T15:08:05;2.53;;;1.23;;
79566;SDS011;69030;48.126;7.816;2023-06-24T15:10:30;2.58;;;1.95;;
79566;SDS011;69030;48.126;7.816;2023-06-24T15:12:56;7.80;;;1.85;;
79566;SDS011;69030;48.126;7.816;2023-06-24T15:15:21;2.97;;;1.88;;
79566;SDS011;69030;48.126;7.816;2023-06-24T15:17:47;3.15;;;1.63;;
79566;SDS011;69030;48.126;7.816;2023-06-24T15:20:12;3.03;;;1.58;;
79566;SDS011;69030;48.126;7.816;2023-06-24T15:22:38;4.10;;;1.15;;
79566;SDS011;69030;48.126;7.816;2023-06-24T15:25:04;1.92;;;1.10;;
79566;SDS011;69030;48.126;7.816;2023-06-24T15:27:30;2.38;;;1.63;;
79566;SDS011;69030;48.126;7.816;2023-06-24T15:29:55;3.53;;;1.33;;
79566;SDS011;69030;48.126;7.816;2023-06-24T15:32:21;3.60;;;1.83;;
79566;SDS011;69030;48.126;7.816;2023-06-24T15:34:46;3.15;;;1.67;;
79566;SDS011;69030;48.126;7.816;2023-06-24T15:37:12;3.67;;;1.10;;
79566;SDS011;69030;48.126;7.816;2023-06-24T15:39:40;2.88;;;1.52;;
79566;SDS011;69030;48.126;7.816;2023-06-24T15:42:06;4.50;;;1.85;;